Flight Track Log - Related Links

Times and Time Zones

All times are in EDT time to prevent confusion due to time zone crossing. See the N41EA flight status page for this flight to view local times or setup timezone preferences in your user account.

Time Position Orientation Groundspeed Altitude Reporting Facility
EDT Latitude Longitude Course Direction KTS MPH feet Rate Location/Type
Wed 10:34:02 PM 38.1792 -122.3472 249° West 198 228 2,100  Level Oakland Center
Wed 10:35:03 PM 38.2153 -122.3978 312° West 218 251 3,600 1,610 Climbing Oakland Center
Wed 10:36:05 PM 38.2806 -122.4014 358° North 232 267 5,400 1,659 Climbing Oakland Center
Wed 10:37:00 PM 38.6969 -122.3080 356° North  Level FlightAware Approximate
Wed 10:37:06 PM 38.3492 -122.4069 356° North 243 280 7,000  Level Oakland Center
Wed 10:38:00 PM 38.7797 -122.3163 356° North  Level FlightAware Approximate
Wed 10:38:07 PM 38.4389 -122.4094 359° North 264 304 8,700  Level Oakland Center
Wed 10:39:08 PM 38.5169 -122.4144 357° North 279 321 10,400 1,623 Climbing Oakland Center
Wed 10:40:09 PM 38.5922 -122.4172 358° North 275 316 12,000 1,672 Climbing Oakland Center
Wed 10:41:10 PM 38.6647 -122.4214 357° North 265 305 13,800 1,672 Climbing Oakland Center
Wed 10:42:11 PM 38.7308 -122.4261 357° North 254 292 15,400 1,672 Climbing Oakland Center
Wed 10:43:12 PM 38.8053 -122.4292 358° North 260 299 17,200 1,475 Climbing Oakland Center
Wed 10:44:13 PM 38.8772 -122.4347 357° North 260 299 18,400 1,230 Climbing Oakland Center
Wed 10:45:14 PM 38.9517 -122.4353 360° North 264 304 19,700 1,230 Climbing Oakland Center
Wed 10:46:15 PM 39.0281 -122.4403 357° North 270 311 20,900 1,122 Climbing Oakland Center
Wed 10:47:17 PM 39.1028 -122.4433 358° North 269 310 22,000 1,122 Climbing Oakland Center
Wed 10:48:18 PM 39.1961 -122.4481 358° North 275 316 23,200 1,131 Climbing Oakland Center
Wed 10:49:19 PM 39.2750 -122.4539 357° North 279 321 24,300 1,033 Climbing Oakland Center
Wed 10:50:20 PM 39.3533 -122.4583 357° North 279 321 25,300 934 Climbing Oakland Center
Wed 10:51:21 PM 39.4328 -122.4617 358° North 281 323 26,200 836 Climbing Oakland Center
Wed 10:52:22 PM 39.5142 -122.4631 359° North 286 329 27,000 885 Climbing Oakland Center
Wed 10:53:23 PM 39.5958 -122.4675 358° North 290 334 28,000 787 Climbing Oakland Center
Wed 10:54:24 PM 39.6772 -122.4719 358° North 292 336 28,600 787 Climbing Oakland Center
Wed 10:55:25 PM 39.7592 -122.4756 358° North 293 337 29,600 885 Climbing Oakland Center
Wed 10:56:26 PM 39.8408 -122.4806 357° North 294 338 30,400 634 Climbing Oakland Center
Wed 10:57:28 PM 39.9258 -122.4850 358° North 311 358 30,900 585 Climbing Oakland Center
Wed 10:58:29 PM 40.0111 -122.4889 358° North 307 353 31,600 639 Climbing Oakland Center
Wed 10:59:30 PM 40.0958 -122.4950 357° North 304 350 32,200 590 Climbing Oakland Center
Wed 11:00:31 PM 40.1822 -122.4981 358° North 307 353 32,800 541 Climbing Oakland Center
Wed 11:01:32 PM 40.2681 -122.5017 358° North 305 351 33,300 492 Climbing Oakland Center
Wed 11:02:33 PM 40.3514 -122.5036 359° North 297 342 33,800 492 Climbing Oakland Center
Wed 11:03:34 PM 40.4342 -122.5081 358° North 295 339 34,300 590 Climbing Oakland Center
Wed 11:04:35 PM 40.5319 -122.5139 357° North 294 338 35,000 585 Climbing Oakland Center
Wed 11:05:37 PM 40.6122 -122.5175 358° North 289 333 35,500 488 Climbing Oakland Center
Wed 11:06:38 PM 40.6931 -122.5217 358° North 289 333 36,000 246 Climbing Oakland Center
Wed 11:07:39 PM 40.7742 -122.5247 358° North 291 335 36,000  Level Oakland Center
Wed 11:08:40 PM 40.8594 -122.5281 358° North 302 348 36,000  Level Oakland Center
Wed 11:09:41 PM 40.9456 -122.5331 357° North 308 354 36,000  Level Oakland Center
Wed 11:10:42 PM 41.0328 -122.5358 359° North 312 359 36,000  Level Oakland Center
Wed 11:11:43 PM 41.1225 -122.5433 356° North 322 371 36,000  Level Oakland Center
Wed 11:12:44 PM 41.2117 -122.5472 358° North 322 371 36,000  Level Oakland Center
Wed 11:13:46 PM 41.3000 -122.5514 358° North 320 368 36,000  Level Oakland Center
Wed 11:14:47 PM 41.4031 -122.5544 359° North 320 368 36,000  Level Oakland Center
Wed 11:15:21 PM 41.4386 -122.5597 354° North 322 371 36,000  Level Seattle Center
Wed 11:16:22 PM 41.5278 -122.5650 357° North 321 369 36,000  Level Seattle Center
Wed 11:17:23 PM 41.6200 -122.5694 358° North 321 369 36,000  Level Seattle Center
Wed 11:18:23 PM 41.7067 -122.5722 359° North 320 368 36,000  Level Seattle Center
Wed 11:19:24 PM 41.8139 -122.5783 358° North 320 368 36,000  Level Seattle Center
Wed 11:20:25 PM 41.9033 -122.5836 357° North 321 369 36,000  Level Seattle Center
Wed 11:21:25 PM 41.9933 -122.5886 358° North 322 371 36,000  Level Seattle Center
Wed 11:22:26 PM 42.0842 -122.5936 358° North 324 373 36,000  Level Seattle Center
Wed 11:23:27 PM 42.1758 -122.5983 358° North 326 375 36,000  Level Seattle Center
Wed 11:24:28 PM 42.2639 -122.6022 358° North 320 368 36,000  Level Seattle Center
Wed 11:25:28 PM 42.3547 -122.6067 358° North 322 371 36,000  Level Seattle Center
Wed 11:26:29 PM 42.4436 -122.6197 354° North 322 371 36,000 -98 Level Seattle Center
Wed 11:27:30 PM 42.5214 -122.6669 336° Northwest 306 352 35,800 -590 Descending Seattle Center
Wed 11:28:31 PM 42.6042 -122.7058 341° North 311 358 34,800 -793 Descending Seattle Center
Wed 11:29:31 PM 42.6897 -122.7506 339° North 324 373 34,200 -397 Descending Seattle Center
Wed 11:30:32 PM 42.7725 -122.7908 340° North 325 374 34,000 -98 Descending Seattle Center
Wed 11:31:33 PM 42.8547 -122.8242 343° North 314 361 34,000  Level Seattle Center
Wed 11:32:33 PM 42.9342 -122.8606 341° North 304 350 34,000  Level Seattle Center
Wed 11:33:34 PM 43.0217 -122.8514 North 312 359 34,000  Level Seattle Center
Wed 11:34:35 PM 43.1108 -122.8500 North 318 366 34,000  Level Seattle Center
Wed 11:35:36 PM 43.2011 -122.8458 North 323 372 34,000  Level Seattle Center
Wed 11:36:36 PM 43.2919 -122.8433 North 325 374 34,000  Level Seattle Center
Wed 11:37:37 PM 43.4006 -122.8386 North 326 375 34,000 -344 Level Seattle Center
Wed 11:38:38 PM 43.4931 -122.8347 North 328 377 33,300 -1,240 Descending Seattle Center
Wed 11:39:38 PM 43.5950 -122.8283 North 354 407 31,500 -1,686 Descending Seattle Center
Wed 11:40:39 PM 43.7008 -122.8258 North 374 430 29,900 -1,574 Descending Seattle Center
Wed 11:41:40 PM 43.8067 -122.8222 North 380 437 28,300 -1,574 Descending Seattle Center
Wed 11:42:41 PM 43.9117 -122.8181 North 379 436 26,700 -1,636 Descending Seattle Center
Wed 11:43:41 PM 44.0136 -122.8139 North 373 429 25,000 -1,785 Descending Seattle Center
Wed 11:44:42 PM 44.1136 -122.8108 North 366 421 23,100 -1,918 Descending Seattle Center
Wed 11:45:43 PM 44.2108 -122.8078 North 357 411 21,100 -1,918 Descending Seattle Center
Wed 11:46:44 PM 44.3042 -122.8039 North 345 397 19,200 -1,835 Descending Seattle Center
Wed 11:47:44 PM 44.3922 -122.8022 North 329 379 17,400 -2,033 Descending Seattle Center
Wed 11:48:45 PM 44.4756 -122.7986 North 310 357 15,100 -2,213 Descending Seattle Center
Wed 11:49:46 PM 44.5583 -122.7969 North 302 348 12,900 -1,918 Descending Seattle Center
Wed 11:50:47 PM 44.6389 -122.7961 360° North 295 339 11,200 -1,752 Descending Seattle Center
Wed 11:51:39 PM 44.7144 -122.7908 North 275 316 9,600 -1,740 Descending Seattle Center
Wed 11:52:27 PM 44.7786 -122.7867 North 274 315 8,300 -1,652 Descending Seattle Center
Wed 11:52:48 PM 44.8050 -122.7856 North 276 318 7,700 -1,574 Descending Seattle Center
Wed 11:53:28 PM 44.8544 -122.7867 359° North 275 316 6,700 -1,574 Descending Seattle Center
Wed 11:53:49 PM 44.8808 -122.7856 North 275 316 6,100 -1,700 Descending Seattle Center
Wed 11:54:28 PM 44.9264 -122.7883 358° North 276 318 5,000 -1,600 Descending Seattle Center
Wed 11:54:49 PM 44.9528 -122.7958 349° North 269 310 4,500 -1,098 Descending Seattle Center
Wed 11:55:50 PM 45.0158 -122.8136 349° North 253 291 3,500 -836 Descending Seattle Center
Wed 11:56:51 PM 45.0683 -122.8050 North 217 250 2,800 -541 Descending Seattle Center
Wed 11:57:52 PM 45.1178 -122.7947 North 188 216 2,400 -347 Descending Seattle Center
Wed 11:58:52 PM 45.1606 -122.7869 North 165 190 2,100 -545 Descending Seattle Center
Wed 11:59:53 PM 45.1947 -122.7792 North 136 157 1,300 -689 Descending Seattle Center
Thu 12:00:54 AM 45.2192 -122.7750 North 104 120 700 -443 Descending Seattle Center
Thu 12:01:55 AM 45.2489 -122.7694 North 99 114 400 -295 Descending Seattle Center
Thu 12:03:00 AM 45.2471 -122.7701 North  Level Estimated
Thu 12:10:00 AM 45.2471 -122.7701 North  Level Estimated
Thu 12:11:00 AM 45.2471 -122.7701 North  Level Estimated
Thu 12:12:00 AM 45.2471 -122.7701 North  Level Estimated
Thu 12:13:00 AM 45.2471 -122.7701 North  Level Estimated
Thu 12:14:00 AM 45.2471 -122.7701 North  Level Estimated
Thu 12:15:00 AM 45.2471 -122.7701 North  Level Estimated

Login

Don't have an account? Register now (free) for customized features, flight alerts, and more!